createdAt,value
2019-05-22T00:03:17.341Z,17.43
2019-05-22T00:08:21.450Z,17.70
2019-05-22T00:13:30.037Z,17.57
2019-05-22T00:18:32.843Z,18.70
2019-05-22T00:23:38.267Z,16.60
2019-05-22T00:28:40.975Z,17.23
2019-05-22T00:33:43.671Z,16.30
2019-05-22T00:38:47.498Z,17.73
2019-05-22T00:43:51.034Z,16.07
2019-05-22T00:48:53.934Z,18.33
2019-05-22T00:54:21.188Z,18.07
2019-05-22T00:59:30.974Z,17.33
2019-05-22T01:04:35.347Z,17.87
2019-05-22T01:09:41.078Z,19.20
2019-05-22T01:14:45.144Z,20.30
2019-05-22T01:19:51.378Z,21.53
2019-05-22T01:24:56.252Z,21.13
2019-05-22T01:30:02.361Z,21.60
2019-05-22T01:35:08.814Z,22.03
2019-05-22T01:40:21.953Z,20.77
2019-05-22T01:45:25.786Z,19.23
2019-05-22T01:50:47.298Z,18.90
2019-05-22T01:55:56.604Z,20.10
2019-05-22T02:01:02.289Z,16.87
2019-05-22T02:06:06.842Z,16.87
2019-05-22T02:11:14.183Z,17.53
2019-05-22T02:16:18.075Z,18.30
2019-05-22T02:21:21.971Z,18.00
2019-05-22T02:26:24.690Z,17.47
2019-05-22T02:31:29.887Z,17.47
2019-05-22T02:36:36.478Z,15.30
2019-05-22T02:41:47.712Z,13.77
2019-05-22T02:46:52.537Z,16.00
2019-05-22T02:51:56.587Z,13.90
2019-05-22T02:57:00.437Z,14.73
2019-05-22T03:02:04.147Z,14.70
2019-05-22T03:07:09.253Z,15.37
2019-05-22T03:12:19.540Z,15.20
2019-05-22T03:17:30.026Z,14.90
2019-05-22T03:22:41.601Z,14.50
2019-05-22T03:27:49.640Z,14.50
2019-05-22T03:32:54.703Z,14.73
2019-05-22T03:37:59.313Z,15.70
2019-05-22T03:43:16.000Z,14.27
2019-05-22T03:48:23.104Z,14.60
2019-05-22T03:53:26.519Z,15.07
2019-05-22T03:58:29.840Z,14.30
2019-05-22T04:03:34.446Z,15.33
2019-05-22T04:08:40.159Z,15.10
2019-05-22T04:13:43.668Z,14.50
2019-05-22T04:18:47.573Z,14.37
2019-05-22T04:23:50.819Z,14.00
2019-05-22T04:28:54.351Z,13.80
2019-05-22T04:33:57.755Z,12.93
2019-05-22T04:39:08.641Z,14.00
2019-05-22T04:44:11.673Z,13.10
2019-05-22T04:49:14.681Z,13.90
2019-05-22T04:54:17.690Z,13.77
2019-05-22T04:59:20.982Z,13.00
2019-05-22T05:04:23.833Z,13.20
2019-05-22T05:09:26.846Z,12.07
2019-05-22T05:14:29.951Z,12.90
2019-05-22T05:19:32.966Z,12.20
2019-05-22T05:24:35.688Z,10.87
2019-05-22T05:29:38.600Z,9.60
2019-05-22T05:34:59.542Z,10.00
2019-05-22T05:40:32.922Z,9.97
2019-05-22T05:45:38.091Z,9.23
2019-05-22T05:51:27.003Z,9.77
2019-05-22T05:56:32.845Z,11.07
2019-05-22T06:01:39.747Z,10.77
2019-05-22T06:07:22.116Z,9.67
2019-05-22T06:12:24.860Z,10.40
2019-05-22T06:18:33.771Z,11.30
2019-05-22T06:24:25.245Z,9.80
2019-05-22T06:29:56.539Z,9.17
2019-05-22T06:34:59.829Z,8.13
2019-05-22T06:40:05.031Z,8.93
2019-05-22T06:45:09.540Z,9.07
2019-05-22T06:50:12.350Z,8.90
2019-05-22T06:55:15.638Z,8.63
2019-05-22T07:00:21.526Z,8.30
2019-05-22T07:05:24.513Z,7.70
2019-05-22T07:10:27.715Z,8.60
2019-05-22T07:15:51.482Z,8.23
2019-05-22T07:20:54.483Z,7.20
2019-05-22T07:25:58.958Z,7.00
2019-05-22T07:31:03.670Z,6.60
2019-05-22T07:36:10.868Z,6.70
2019-05-22T07:41:11.802Z,5.17
2019-05-22T07:46:14.672Z,6.10
2019-05-22T07:51:18.550Z,5.60
2019-05-22T07:56:22.030Z,5.27
2019-05-22T08:01:25.725Z,5.47
2019-05-22T08:06:28.728Z,5.20
2019-05-22T08:11:31.850Z,5.17
2019-05-22T08:16:35.695Z,4.73
2019-05-22T08:21:39.412Z,4.83
2019-05-22T08:26:53.984Z,4.90
2019-05-22T08:31:47.104Z,5.23
2019-05-22T08:36:50.208Z,6.43
2019-05-22T08:41:53.321Z,4.83
2019-05-22T08:46:56.333Z,4.40
2019-05-22T08:51:59.501Z,5.00
2019-05-22T08:57:04.312Z,6.27
2019-05-22T09:02:08.933Z,5.97
2019-05-22T09:07:11.743Z,6.10
2019-05-22T09:12:16.348Z,7.63
2019-05-22T09:17:20.647Z,6.83
2019-05-22T09:22:39.639Z,7.40
2019-05-22T09:27:28.792Z,7.80
2019-05-22T09:32:31.563Z,7.47
2019-05-22T09:37:34.347Z,7.17
2019-05-22T09:42:37.541Z,6.70
2019-05-22T09:47:40.378Z,6.23
2019-05-22T09:52:56.921Z,5.23
2019-05-22T09:57:50.709Z,5.00
2019-05-22T10:02:53.615Z,4.40
2019-05-22T10:08:01.628Z,4.70
2019-05-22T10:13:05.018Z,5.33
2019-05-22T10:18:08.617Z,4.77
2019-05-22T10:23:15.860Z,4.80
2019-05-22T10:28:16.638Z,4.63
2019-05-22T10:33:19.438Z,4.50
2019-05-22T10:38:22.630Z,4.40
2019-05-22T10:43:25.763Z,5.57
2019-05-22T10:48:28.679Z,9.70
2019-05-22T10:53:34.173Z,4.43
2019-05-22T10:58:36.094Z,4.57
2019-05-22T11:03:39.927Z,4.20
2019-05-22T11:08:43.911Z,5.10
2019-05-22T11:14:00.577Z,4.80
2019-05-22T11:18:54.155Z,4.13
2019-05-22T11:23:57.169Z,4.63
2019-05-22T11:29:01.867Z,4.20
2019-05-22T11:34:06.082Z,3.93
2019-05-22T11:39:14.000Z,3.57
2019-05-22T11:44:18.748Z,3.90
2019-05-22T11:49:22.237Z,3.90
2019-05-22T11:54:25.313Z,4.10
2019-05-22T11:59:28.131Z,4.23
2019-05-22T12:04:46.546Z,5.30
2019-05-22T12:09:36.765Z,4.30
2019-05-22T12:14:39.864Z,4.37
2019-05-22T12:19:42.878Z,4.63
2019-05-22T12:24:45.879Z,4.80
2019-05-22T12:29:49.181Z,6.03
2019-05-22T12:34:51.993Z,5.07
2019-05-22T12:39:55.291Z,6.10
2019-05-22T12:44:58.216Z,4.30
2019-05-22T12:50:02.740Z,4.10
2019-05-22T12:55:06.852Z,4.13
2019-05-22T13:00:11.510Z,4.57
2019-05-22T13:05:15.448Z,2.83
2019-05-22T13:10:21.578Z,3.37
2019-05-22T13:15:25.444Z,3.63
2019-05-22T13:20:42.450Z,4.50
2019-05-22T13:25:39.177Z,3.93
2019-05-22T13:31:02.990Z,3.80
2019-05-22T13:36:08.468Z,3.20
2019-05-22T13:41:11.573Z,3.40
2019-05-22T13:46:14.868Z,3.43
2019-05-22T13:51:18.071Z,3.63
2019-05-22T13:56:25.343Z,4.23
2019-05-22T14:01:27.511Z,4.10
2019-05-22T14:06:31.096Z,3.77
2019-05-22T14:11:34.271Z,4.37
2019-05-22T14:16:48.120Z,4.60
2019-05-22T14:21:49.818Z,4.10
2019-05-22T14:26:46.903Z,4.10
2019-05-22T14:31:49.847Z,3.20
2019-05-22T14:36:52.864Z,4.27
2019-05-22T14:41:56.100Z,3.60
2019-05-22T14:47:12.295Z,3.50
2019-05-22T14:52:05.477Z,3.23
2019-05-22T14:57:09.003Z,3.30
2019-05-22T15:02:11.805Z,2.87
2019-05-22T15:07:14.529Z,2.90
2019-05-22T15:12:17.333Z,3.27
2019-05-22T15:17:31.650Z,3.20
2019-05-22T15:22:25.487Z,2.93
2019-05-22T15:27:28.289Z,3.20
2019-05-22T15:32:30.988Z,3.20
2019-05-22T15:37:35.473Z,2.90
2019-05-22T15:42:41.378Z,2.60
2019-05-22T15:47:54.238Z,3.17
2019-05-22T15:52:54.854Z,2.40
2019-05-22T15:57:59.237Z,2.47
2019-05-22T16:03:10.234Z,2.73
2019-05-22T16:08:15.200Z,2.53
2019-05-22T16:13:21.505Z,2.33
2019-05-22T16:18:28.799Z,2.50
2019-05-22T16:23:35.408Z,2.57
2019-05-22T16:28:41.810Z,2.53
2019-05-22T16:33:46.613Z,2.80
2019-05-22T16:38:51.097Z,2.40
2019-05-22T16:43:54.591Z,2.83
2019-05-22T16:48:57.500Z,2.37
2019-05-22T16:54:06.497Z,2.03
2019-05-22T16:59:11.306Z,2.67
2019-05-22T17:04:15.437Z,2.40
2019-05-22T17:09:18.760Z,2.50
2019-05-22T17:14:22.946Z,3.20
2019-05-22T17:19:27.805Z,2.10
2019-05-22T17:24:34.145Z,2.53
2019-05-22T17:29:35.901Z,2.80
2019-05-22T17:34:39.252Z,2.67
2019-05-22T17:39:46.055Z,3.60
2019-05-22T17:44:50.937Z,2.93
2019-05-22T17:49:55.491Z,2.37
2019-05-22T17:54:58.310Z,2.50
2019-05-22T18:00:03.008Z,2.90
2019-05-22T18:05:07.883Z,2.60
2019-05-22T18:10:12.665Z,2.30
2019-05-22T18:15:16.787Z,2.50
2019-05-22T18:20:21.291Z,3.40
2019-05-22T18:25:25.101Z,2.90
2019-05-22T18:30:28.329Z,2.93
2019-05-22T18:35:31.157Z,2.97
2019-05-22T18:40:33.963Z,2.50
2019-05-22T18:45:38.215Z,3.20
2019-05-22T18:50:41.217Z,2.50
2019-05-22T18:55:44.213Z,2.87
2019-05-22T19:00:47.060Z,3.50
2019-05-22T19:05:50.095Z,2.93
2019-05-22T19:10:53.100Z,2.93
2019-05-22T19:15:55.987Z,3.63
2019-05-22T19:21:00.196Z,3.03
2019-05-22T19:26:05.730Z,6.83
2019-05-22T19:31:08.117Z,3.70
2019-05-22T19:36:11.080Z,5.47
2019-05-22T19:41:14.317Z,4.23
2019-05-22T19:46:17.520Z,3.90
2019-05-22T19:51:20.847Z,3.90
2019-05-22T19:56:24.127Z,4.10
2019-05-22T20:01:28.548Z,4.23
2019-05-22T20:06:31.762Z,4.00
2019-05-22T20:11:34.471Z,4.07
2019-05-22T20:16:37.583Z,4.20
2019-05-22T20:21:41.012Z,4.50
2019-05-22T20:26:44.058Z,4.47
2019-05-22T20:31:47.561Z,4.50
2019-05-22T20:36:50.352Z,3.97
2019-05-22T20:41:53.496Z,4.90
2019-05-22T20:46:56.607Z,4.10
2019-05-22T20:51:59.529Z,4.43
2019-05-22T20:57:04.180Z,4.37
2019-05-22T21:02:08.315Z,4.10
2019-05-22T21:07:12.136Z,4.00
2019-05-22T21:12:16.548Z,5.17
2019-05-22T21:17:19.550Z,4.80
2019-05-22T21:22:24.449Z,6.20
2019-05-22T21:27:27.610Z,4.90
2019-05-22T21:32:30.419Z,4.63
2019-05-22T21:37:33.138Z,4.37
2019-05-22T21:42:41.096Z,15.23
2019-05-22T21:47:44.027Z,6.33
2019-05-22T21:52:46.934Z,5.30
2019-05-22T21:57:50.276Z,5.80
2019-05-22T22:02:55.274Z,5.93
2019-05-22T22:07:58.785Z,4.80
2019-05-22T22:13:01.966Z,5.50
2019-05-22T22:18:07.801Z,5.70
2019-05-22T22:23:14.031Z,5.00
2019-05-22T22:28:17.765Z,5.93
2019-05-22T22:33:27.475Z,9.90
2019-05-22T22:38:32.273Z,6.33
2019-05-22T22:43:38.673Z,6.03
2019-05-22T22:48:43.293Z,5.40
2019-05-22T22:53:45.992Z,4.90
2019-05-22T22:58:48.699Z,5.90
2019-05-22T23:03:56.109Z,5.73
2019-05-22T23:08:59.121Z,5.77
2019-05-22T23:14:02.551Z,5.80
2019-05-22T23:19:40.921Z,6.60
2019-05-22T23:24:45.510Z,7.10
2019-05-22T23:29:50.415Z,6.60
2019-05-22T23:34:54.788Z,6.80
2019-05-22T23:39:58.719Z,7.10
2019-05-22T23:45:06.295Z,6.17
2019-05-22T23:50:09.396Z,6.13
2019-05-22T23:55:14.007Z,6.60
